createdAt,value
2023-04-06T00:01:42.569Z,13.25
2023-04-06T00:04:09.133Z,10.10
2023-04-06T00:06:38.022Z,18.23
2023-04-06T00:09:04.634Z,10.23
2023-04-06T00:11:31.180Z,8.95
2023-04-06T00:14:00.409Z,11.57
2023-04-06T00:16:39.202Z,11.70
2023-04-06T00:19:05.619Z,12.00
2023-04-06T00:21:33.189Z,6.53
2023-04-06T00:24:01.975Z,6.85
2023-04-06T00:26:28.522Z,7.28
2023-04-06T00:28:54.940Z,14.27
2023-04-06T00:31:21.407Z,10.70
2023-04-06T00:33:49.209Z,12.48
2023-04-06T00:36:15.796Z,9.75
2023-04-06T00:38:42.207Z,8.32
2023-04-06T00:41:08.587Z,9.63
2023-04-06T00:43:35.140Z,5.63
2023-04-06T00:46:01.582Z,7.43
2023-04-06T00:48:28.197Z,11.55
2023-04-06T00:50:58.053Z,7.15
2023-04-06T00:53:26.867Z,9.50
2023-04-06T00:55:53.387Z,7.47
2023-04-06T00:58:19.957Z,6.80
2023-04-06T01:00:46.636Z,11.00
2023-04-06T01:03:15.653Z,11.25
2023-04-06T01:05:43.611Z,6.57
2023-04-06T01:08:10.425Z,8.52
2023-04-06T01:10:36.855Z,7.40
2023-04-06T01:13:03.353Z,15.05
2023-04-06T01:15:31.021Z,5.78
2023-04-06T01:17:57.422Z,6.70
2023-04-06T01:20:23.986Z,6.72
2023-04-06T01:22:50.616Z,8.00
2023-04-06T01:25:17.307Z,10.88
2023-04-06T01:27:46.627Z,6.75
2023-04-06T01:30:13.551Z,7.32
2023-04-06T01:32:39.978Z,6.47
2023-04-06T01:35:06.690Z,13.18
2023-04-06T01:37:33.575Z,8.35
2023-04-06T01:40:03.551Z,8.43
2023-04-06T01:42:31.349Z,6.53
2023-04-06T01:44:58.000Z,7.13
2023-04-06T01:47:24.474Z,5.75
2023-04-06T01:49:51.045Z,7.60
2023-04-06T01:52:17.417Z,10.00
2023-04-06T01:54:43.798Z,12.60
2023-04-06T01:57:11.890Z,6.38
2023-04-06T01:59:38.549Z,5.90
2023-04-06T02:02:05.463Z,6.90
2023-04-06T02:04:34.160Z,11.05
2023-04-06T02:07:00.520Z,8.45
2023-04-06T02:09:29.383Z,6.07
2023-04-06T02:11:56.665Z,7.05
2023-04-06T02:14:26.469Z,12.48
2023-04-06T02:16:53.033Z,8.43
2023-04-06T02:19:19.810Z,9.57
2023-04-06T02:21:46.424Z,7.70
2023-04-06T02:24:13.026Z,6.93
2023-04-06T02:26:39.568Z,8.45
2023-04-06T02:29:07.147Z,22.10
2023-04-06T02:31:33.771Z,18.40
2023-04-06T02:34:02.838Z,12.73
2023-04-06T02:36:34.190Z,7.57
2023-04-06T02:39:00.558Z,7.30
2023-04-06T02:41:29.607Z,7.53
2023-04-06T02:43:56.328Z,4.82
2023-04-06T02:46:22.993Z,11.02
2023-04-06T02:48:49.655Z,7.40
2023-04-06T02:51:16.094Z,7.00
2023-04-06T02:53:44.890Z,6.88
2023-04-06T02:56:11.383Z,6.45
2023-04-06T02:58:38.032Z,7.10
2023-04-06T03:01:04.853Z,7.85
2023-04-06T03:03:31.641Z,7.72
2023-04-06T03:05:59.553Z,8.60
2023-04-06T03:08:26.057Z,13.85
2023-04-06T03:10:52.464Z,6.15
2023-04-06T03:13:18.952Z,8.00
2023-04-06T03:15:45.525Z,9.63
2023-04-06T03:18:12.066Z,5.72
2023-04-06T03:20:38.440Z,10.00
2023-04-06T03:23:04.957Z,9.68
2023-04-06T03:25:31.352Z,10.52
2023-04-06T03:28:00.764Z,9.75
2023-04-06T03:30:27.522Z,7.72
2023-04-06T03:32:56.143Z,9.00
2023-04-06T03:35:22.611Z,6.72
2023-04-06T03:37:49.096Z,9.80
2023-04-06T03:40:15.651Z,11.88
2023-04-06T03:42:44.985Z,14.43
2023-04-06T03:45:14.960Z,10.77
2023-04-06T03:47:44.028Z,9.80
2023-04-06T03:50:10.962Z,7.22
2023-04-06T03:52:37.480Z,7.82
2023-04-06T03:55:04.203Z,8.93
2023-04-06T03:57:30.714Z,10.52
2023-04-06T03:59:57.148Z,8.65
2023-04-06T04:02:23.673Z,7.13
2023-04-06T04:04:50.308Z,6.90
2023-04-06T04:07:16.791Z,9.30
2023-04-06T04:09:45.619Z,13.20
2023-04-06T04:12:12.097Z,7.07
2023-04-06T04:14:41.590Z,8.40
2023-04-06T04:17:07.950Z,10.13
2023-04-06T04:19:34.360Z,6.55
2023-04-06T04:22:00.891Z,9.13
2023-04-06T04:24:27.470Z,11.15
2023-04-06T04:26:53.936Z,9.57
2023-04-06T04:29:22.167Z,7.97
2023-04-06T04:31:48.616Z,10.13
2023-04-06T04:34:16.089Z,9.40
2023-04-06T04:36:45.602Z,8.18
2023-04-06T04:39:11.978Z,9.80
2023-04-06T04:41:38.531Z,10.02
2023-04-06T04:44:08.318Z,7.40
2023-04-06T04:46:37.359Z,10.63
2023-04-06T04:49:06.343Z,8.40
2023-04-06T04:51:33.652Z,7.40
2023-04-06T04:54:00.294Z,9.43
2023-04-06T04:56:28.508Z,11.05
2023-04-06T04:58:55.229Z,9.23
2023-04-06T05:01:21.689Z,9.02
2023-04-06T05:03:50.970Z,12.68
2023-04-06T05:06:17.731Z,13.68
2023-04-06T05:08:44.131Z,12.57
2023-04-06T05:11:11.102Z,12.02
2023-04-06T05:13:40.532Z,10.93
2023-04-06T05:16:07.246Z,8.07
2023-04-06T05:18:33.746Z,11.73
2023-04-06T05:21:00.495Z,11.02
2023-04-06T05:23:27.181Z,8.32
2023-04-06T05:25:53.610Z,9.90
2023-04-06T05:28:20.316Z,12.48
2023-04-06T05:30:49.314Z,7.90
2023-04-06T05:33:16.117Z,18.02
2023-04-06T05:35:42.686Z,12.45
2023-04-06T05:38:10.890Z,13.73
2023-04-06T05:40:39.493Z,9.07
2023-04-06T05:43:06.033Z,11.55
2023-04-06T05:45:32.396Z,12.45
2023-04-06T05:47:58.980Z,11.30
2023-04-06T05:50:25.910Z,15.73
2023-04-06T05:52:52.301Z,9.63
2023-04-06T05:55:18.900Z,12.00
2023-04-06T05:57:45.305Z,9.90
2023-04-06T06:00:12.357Z,10.65
2023-04-06T06:02:43.236Z,10.82
2023-04-06T06:05:11.271Z,7.53
2023-04-06T06:07:38.003Z,9.02
2023-04-06T06:10:04.663Z,8.27
2023-04-06T06:12:31.559Z,11.25
2023-04-06T06:14:58.279Z,11.32
2023-04-06T06:17:24.841Z,11.32
2023-04-06T06:19:51.243Z,7.97
2023-04-06T06:22:17.735Z,9.13
2023-04-06T06:24:44.412Z,9.68
2023-04-06T06:27:11.207Z,10.05
2023-04-06T06:29:37.741Z,12.68
2023-04-06T06:32:04.269Z,11.23
2023-04-06T06:34:30.903Z,8.38
2023-04-06T06:36:57.628Z,12.73
2023-04-06T06:39:24.260Z,9.73
2023-04-06T06:41:50.886Z,12.05
2023-04-06T06:44:17.690Z,10.68
2023-04-06T06:46:49.606Z,11.98
2023-04-06T06:49:16.161Z,14.02
2023-04-06T06:51:42.521Z,15.95
2023-04-06T06:54:09.491Z,14.32
2023-04-06T06:56:39.107Z,11.55
2023-04-06T06:59:08.469Z,10.23
2023-04-06T07:01:35.854Z,11.15
2023-04-06T07:04:02.881Z,11.32
2023-04-06T07:06:29.334Z,14.23
2023-04-06T07:08:58.978Z,11.77
2023-04-06T07:11:25.527Z,9.40
2023-04-06T07:13:52.221Z,24.20
2023-04-06T07:16:18.640Z,9.77
2023-04-06T07:18:45.014Z,10.13
2023-04-06T07:21:11.357Z,19.88
2023-04-06T07:23:38.115Z,9.65
2023-04-06T07:26:04.641Z,8.85
2023-04-06T07:28:31.072Z,7.82
2023-04-06T07:30:57.500Z,11.25
2023-04-06T07:33:23.890Z,11.65
2023-04-06T07:35:53.485Z,10.60
2023-04-06T07:38:19.950Z,7.15
2023-04-06T07:40:46.305Z,7.78
2023-04-06T07:43:15.305Z,7.60
2023-04-06T07:45:41.705Z,9.50
2023-04-06T07:48:08.125Z,16.45
2023-04-06T07:50:34.904Z,13.43
2023-04-06T07:53:02.047Z,9.15
2023-04-06T07:55:28.487Z,6.10
2023-04-06T07:57:55.016Z,7.80
2023-04-06T08:00:21.868Z,8.75
2023-04-06T08:02:48.326Z,7.35
2023-04-06T08:05:15.002Z,6.38
2023-04-06T08:07:42.593Z,8.30
2023-04-06T08:10:09.500Z,7.82
2023-04-06T08:12:35.974Z,5.70
2023-04-06T08:15:06.154Z,15.98
2023-04-06T08:17:33.176Z,9.38
2023-04-06T08:19:59.705Z,8.20
2023-04-06T08:22:30.887Z,7.15
2023-04-06T08:24:57.378Z,10.75
2023-04-06T08:27:23.956Z,11.68
2023-04-06T08:29:52.101Z,7.35
2023-04-06T08:32:18.532Z,13.32
2023-04-06T08:34:48.037Z,8.57
2023-04-06T08:37:14.655Z,5.05
2023-04-06T08:39:41.239Z,9.35
2023-04-06T08:42:19.678Z,11.25
2023-04-06T08:44:47.183Z,12.80
2023-04-06T08:47:14.066Z,13.25
2023-04-06T08:49:44.418Z,9.52
2023-04-06T08:52:11.872Z,9.75
2023-04-06T08:54:39.149Z,15.15
2023-04-06T08:57:10.958Z,6.03
2023-04-06T08:59:37.964Z,5.28
2023-04-06T09:02:11.611Z,7.63
2023-04-06T09:04:38.271Z,6.57
2023-04-06T09:07:05.034Z,11.05
2023-04-06T09:09:33.677Z,5.90
2023-04-06T09:12:06.678Z,12.82
2023-04-06T09:14:41.875Z,8.32
2023-04-06T09:17:08.307Z,12.07
2023-04-06T09:19:34.947Z,4.93
2023-04-06T09:22:05.990Z,7.65
2023-04-06T09:24:46.727Z,8.23
2023-04-06T09:27:14.292Z,8.35
2023-04-06T09:29:41.918Z,5.18
2023-04-06T09:32:13.154Z,7.28
2023-04-06T09:34:40.152Z,16.10
2023-04-06T09:37:22.192Z,9.75
2023-04-06T09:39:48.832Z,8.82
2023-04-06T09:42:27.757Z,12.27
2023-04-06T09:44:54.182Z,3.97
2023-04-06T09:47:20.946Z,5.97
2023-04-06T09:49:50.749Z,5.82
2023-04-06T09:52:19.032Z,9.35
2023-04-06T09:54:53.652Z,10.43
2023-04-06T09:57:29.655Z,9.70
2023-04-06T10:00:15.405Z,7.90
2023-04-06T10:03:12.878Z,8.98
2023-04-06T10:05:55.996Z,9.68
2023-04-06T10:08:26.410Z,5.55
2023-04-06T10:10:53.282Z,5.82
2023-04-06T10:13:20.055Z,8.65
2023-04-06T10:15:46.683Z,6.20
2023-04-06T10:18:17.197Z,8.30
2023-04-06T10:20:49.281Z,5.60
2023-04-06T10:26:14.374Z,9.52
2023-04-06T10:28:42.943Z,5.28
2023-04-06T10:31:09.359Z,9.93
2023-04-06T10:33:36.555Z,5.28
2023-04-06T10:36:12.654Z,8.93
2023-04-06T10:38:41.907Z,4.40
2023-04-06T10:41:15.815Z,7.00
2023-04-06T10:43:42.696Z,5.78
2023-04-06T10:46:10.521Z,6.22
2023-04-06T10:48:57.792Z,7.35
2023-04-06T10:51:49.607Z,6.53
2023-04-06T10:54:35.754Z,13.10
2023-04-06T10:57:20.934Z,8.38
2023-04-06T11:00:06.343Z,6.43
2023-04-06T11:02:51.517Z,4.75
2023-04-06T11:05:36.694Z,6.25
2023-04-06T11:08:21.646Z,5.97
2023-04-06T11:11:09.609Z,7.35
2023-04-06T11:14:00.257Z,7.63
2023-04-06T11:16:50.653Z,7.15
2023-04-06T11:19:36.113Z,6.38
2023-04-06T11:22:27.233Z,3.88
2023-04-06T11:25:13.172Z,4.90
2023-04-06T11:27:58.355Z,9.75
2023-04-06T11:30:43.737Z,7.82
2023-04-06T11:33:28.902Z,6.57
2023-04-06T11:36:17.184Z,6.75
2023-04-06T11:39:02.622Z,6.40
2023-04-06T11:41:47.388Z,6.25
2023-04-06T11:44:35.725Z,7.95
2023-04-06T11:47:26.215Z,8.27
2023-04-06T11:50:01.820Z,5.70
2023-04-06T11:52:29.062Z,9.45
2023-04-06T11:54:57.763Z,9.73
2023-04-06T11:57:26.857Z,9.82
2023-04-06T11:59:53.930Z,12.05
2023-04-06T12:02:20.336Z,8.73
2023-04-06T12:04:50.008Z,9.57
2023-04-06T12:07:16.473Z,9.05
2023-04-06T12:09:43.884Z,10.52
2023-04-06T12:12:10.459Z,7.70
2023-04-06T12:14:39.327Z,7.82
2023-04-06T12:17:05.915Z,14.63
2023-04-06T12:19:32.718Z,7.95
2023-04-06T12:21:59.523Z,10.10
2023-04-06T12:24:26.295Z,7.95
2023-04-06T12:27:08.653Z,10.18
2023-04-06T12:29:36.070Z,9.20
2023-04-06T12:32:02.693Z,10.25
2023-04-06T12:34:29.443Z,11.73
2023-04-06T12:36:56.831Z,7.82
2023-04-06T12:39:23.623Z,11.57
2023-04-06T12:41:53.113Z,9.38
2023-04-06T12:44:19.643Z,11.38
2023-04-06T12:46:46.377Z,10.98
2023-04-06T12:49:17.755Z,12.23
2023-04-06T12:51:44.128Z,12.02
2023-04-06T12:54:11.950Z,6.60
2023-04-06T12:56:38.576Z,13.15
2023-04-06T12:59:04.998Z,10.20
2023-04-06T13:01:31.829Z,11.77
2023-04-06T13:04:00.134Z,8.52
2023-04-06T13:06:29.487Z,17.77
2023-04-06T13:08:57.812Z,8.25
2023-04-06T13:11:30.039Z,14.02
2023-04-06T13:13:56.553Z,12.15
2023-04-06T13:16:25.972Z,9.70
2023-04-06T13:18:54.724Z,8.40
2023-04-06T13:21:21.858Z,7.15
2023-04-06T13:23:48.417Z,8.38
2023-04-06T13:26:17.715Z,7.63
2023-04-06T13:28:48.838Z,10.27
2023-04-06T13:31:15.452Z,10.50
2023-04-06T13:33:42.027Z,11.10
2023-04-06T13:36:08.999Z,9.68
2023-04-06T13:38:35.621Z,7.20
2023-04-06T13:41:02.218Z,9.00
2023-04-06T13:43:28.664Z,10.15
2023-04-06T13:45:59.450Z,11.73
2023-04-06T13:48:27.057Z,12.82
2023-04-06T13:50:53.498Z,10.02
2023-04-06T13:53:20.059Z,7.85
2023-04-06T13:55:53.733Z,7.82
2023-04-06T13:58:20.288Z,8.80
2023-04-06T14:00:47.229Z,7.63
2023-04-06T14:03:16.384Z,11.65
2023-04-06T14:05:43.073Z,8.32
2023-04-06T14:08:09.546Z,10.05
2023-04-06T14:10:41.346Z,10.10
2023-04-06T14:13:11.034Z,9.93
2023-04-06T14:15:40.123Z,12.02
2023-04-06T14:18:09.192Z,7.40
2023-04-06T14:20:38.088Z,10.07
2023-04-06T14:23:04.783Z,10.63
2023-04-06T14:25:32.835Z,9.32
2023-04-06T14:27:59.363Z,11.50
2023-04-06T14:30:25.972Z,9.20
2023-04-06T14:32:52.806Z,11.10
2023-04-06T14:35:21.899Z,8.77
2023-04-06T14:37:48.415Z,13.80
2023-04-06T14:40:14.892Z,11.40
2023-04-06T14:42:41.574Z,8.45
2023-04-06T14:45:08.337Z,11.98
2023-04-06T14:47:34.843Z,10.60
2023-04-06T14:50:05.018Z,8.63
2023-04-06T14:52:32.792Z,14.77
2023-04-06T14:54:59.520Z,13.02
2023-04-06T14:57:25.926Z,9.43
2023-04-06T14:59:54.452Z,10.75
2023-04-06T15:02:23.859Z,18.13
2023-04-06T15:04:54.009Z,8.00
2023-04-06T15:07:21.473Z,7.85
2023-04-06T15:09:47.843Z,15.27
2023-04-06T15:12:14.295Z,14.13
2023-04-06T15:14:42.990Z,7.78
2023-04-06T15:17:09.389Z,11.27
2023-04-06T15:19:35.988Z,8.38
2023-04-06T15:22:02.518Z,7.85
2023-04-06T15:24:28.924Z,8.48
2023-04-06T15:26:55.942Z,10.43
2023-04-06T15:29:22.438Z,5.82
2023-04-06T15:31:51.237Z,4.57
2023-04-06T15:34:17.829Z,6.28
2023-04-06T15:36:46.541Z,6.13
2023-04-06T15:39:13.875Z,7.10
2023-04-06T15:41:43.389Z,5.78
2023-04-06T15:44:11.920Z,7.10
2023-04-06T15:46:38.526Z,9.40
2023-04-06T15:49:05.050Z,5.93
2023-04-06T15:51:31.490Z,5.88
2023-04-06T15:53:58.625Z,7.00
2023-04-06T15:56:27.397Z,5.63
2023-04-06T15:58:53.800Z,7.90
2023-04-06T16:01:20.596Z,6.53
2023-04-06T16:03:47.559Z,6.93
2023-04-06T16:06:14.254Z,6.88
2023-04-06T16:08:41.079Z,7.20
2023-04-06T16:11:10.417Z,5.75
2023-04-06T16:13:37.049Z,10.40
2023-04-06T16:16:06.873Z,16.95
2023-04-06T16:18:36.220Z,10.55
2023-04-06T16:21:03.400Z,8.00
2023-04-06T16:23:32.230Z,7.28
2023-04-06T16:25:58.655Z,8.98
2023-04-06T16:28:25.625Z,5.20
2023-04-06T16:30:54.342Z,4.63
2023-04-06T16:33:21.092Z,5.32
2023-04-06T16:35:48.382Z,11.75
2023-04-06T16:38:15.967Z,12.98
2023-04-06T16:40:42.536Z,6.78
2023-04-06T16:43:09.924Z,4.82
2023-04-06T16:45:36.919Z,6.10
2023-04-06T16:48:04.096Z,5.65
2023-04-06T16:50:30.737Z,7.30
2023-04-06T16:52:57.137Z,5.80
2023-04-06T16:55:23.621Z,16.30
2023-04-06T16:57:50.159Z,7.35
2023-04-06T17:00:17.138Z,11.45
2023-04-06T17:02:47.095Z,8.18
2023-04-06T17:05:14.169Z,17.90
2023-04-06T17:07:45.407Z,10.70
2023-04-06T17:10:11.869Z,36.80
2023-04-06T17:12:38.236Z,8.25
2023-04-06T17:15:04.925Z,5.53
2023-04-06T17:17:33.770Z,4.00
2023-04-06T17:20:00.344Z,3.38
2023-04-06T17:22:29.120Z,8.30
2023-04-06T17:24:55.517Z,6.45
2023-04-06T17:27:23.526Z,2.95
2023-04-06T17:29:50.058Z,3.53
2023-04-06T17:32:16.571Z,4.10
2023-04-06T17:34:43.076Z,6.22
2023-04-06T17:37:09.650Z,5.40
2023-04-06T17:39:36.686Z,13.07
2023-04-06T17:42:06.829Z,6.00
2023-04-06T17:44:33.962Z,6.10
2023-04-06T17:47:00.513Z,7.50
2023-04-06T17:49:26.879Z,7.50
2023-04-06T17:51:53.244Z,8.15
2023-04-06T17:54:19.640Z,11.15
2023-04-06T17:56:48.906Z,9.95
2023-04-06T17:59:15.540Z,5.95
2023-04-06T18:01:42.078Z,6.60
2023-04-06T18:04:08.525Z,11.95
2023-04-06T18:06:35.159Z,11.02
2023-04-06T18:09:03.494Z,10.50
2023-04-06T18:11:35.822Z,8.30
2023-04-06T18:16:34.544Z,7.88
2023-04-06T18:19:01.684Z,8.27
2023-04-06T18:21:28.636Z,7.82
2023-04-06T18:23:55.443Z,17.92
2023-04-06T18:26:22.149Z,29.08
2023-04-06T18:28:50.983Z,29.02
2023-04-06T18:31:21.598Z,32.67
2023-04-06T18:33:48.111Z,27.90
2023-04-06T18:36:16.971Z,24.60
2023-04-06T18:38:47.859Z,27.55
2023-04-06T18:41:18.168Z,12.38
2023-04-06T18:43:44.786Z,10.70
2023-04-06T18:46:15.679Z,9.60
2023-04-06T18:48:45.666Z,10.48
2023-04-06T18:51:12.045Z,7.97
2023-04-06T18:53:41.045Z,16.50
2023-04-06T18:56:18.789Z,12.55
2023-04-06T18:58:46.452Z,16.90
2023-04-06T19:01:29.023Z,9.98
2023-04-06T19:03:56.682Z,9.25
2023-04-06T19:06:27.398Z,20.73
2023-04-06T19:08:53.969Z,10.55
2023-04-06T19:11:23.119Z,16.70
2023-04-06T19:13:49.977Z,12.75
2023-04-06T19:16:17.742Z,13.27
2023-04-06T19:18:45.483Z,11.02
2023-04-06T19:21:15.719Z,9.73
2023-04-06T19:23:45.099Z,13.00
2023-04-06T19:26:12.935Z,12.07
2023-04-06T19:28:39.665Z,10.65
2023-04-06T19:31:08.749Z,14.45
2023-04-06T19:33:36.685Z,18.15
2023-04-06T19:36:06.230Z,14.60
2023-04-06T19:38:34.147Z,12.00
2023-04-06T19:41:01.792Z,12.45
2023-04-06T19:43:31.061Z,13.07
2023-04-06T19:46:00.740Z,14.35
2023-04-06T19:48:27.215Z,12.57
2023-04-06T19:50:57.014Z,9.73
2023-04-06T19:53:23.653Z,13.70
2023-04-06T19:55:52.525Z,18.08
2023-04-06T19:58:18.912Z,15.82
2023-04-06T20:00:47.779Z,12.98
2023-04-06T20:03:14.472Z,12.02
2023-04-06T20:05:41.074Z,9.52
2023-04-06T20:08:09.977Z,10.07
2023-04-06T20:10:36.552Z,13.98
2023-04-06T20:13:04.256Z,10.70
2023-04-06T20:15:33.040Z,10.88
2023-04-06T20:17:59.433Z,10.00
2023-04-06T20:20:26.008Z,10.57
2023-04-06T20:22:52.536Z,11.48
2023-04-06T20:25:19.714Z,13.88
2023-04-06T20:27:48.651Z,14.07
2023-04-06T20:30:16.740Z,11.80
2023-04-06T20:32:43.687Z,10.57
2023-04-06T20:35:12.983Z,13.45
2023-04-06T20:37:39.437Z,12.88
2023-04-06T20:40:06.832Z,13.95
2023-04-06T20:42:34.365Z,9.88
2023-04-06T20:45:03.498Z,9.93
2023-04-06T20:47:31.490Z,12.23
2023-04-06T20:49:58.148Z,9.98
2023-04-06T20:52:24.697Z,10.93
2023-04-06T20:54:51.117Z,12.02
2023-04-06T20:57:17.708Z,10.68
2023-04-06T20:59:45.194Z,12.38
2023-04-06T21:02:11.767Z,13.73
2023-04-06T21:04:43.480Z,13.70
2023-04-06T21:07:10.389Z,16.73
2023-04-06T21:09:38.599Z,14.65
2023-04-06T21:12:06.520Z,10.85
2023-04-06T21:14:33.340Z,11.55
2023-04-06T21:17:04.666Z,13.02
2023-04-06T21:19:33.526Z,14.00
2023-04-06T21:22:00.147Z,17.40
2023-04-06T21:24:27.071Z,15.70
2023-04-06T21:26:53.505Z,36.00
2023-04-06T21:29:20.106Z,17.15
2023-04-06T21:31:46.554Z,23.25
2023-04-06T21:34:14.016Z,14.48
2023-04-06T21:36:41.614Z,10.75
2023-04-06T21:39:08.493Z,17.20
2023-04-06T21:41:34.900Z,12.48
2023-04-06T21:44:01.338Z,15.38
2023-04-06T21:46:27.873Z,21.42
2023-04-06T21:48:54.352Z,13.25
2023-04-06T21:51:22.009Z,19.23
2023-04-06T21:53:49.037Z,130.13
2023-04-06T21:56:24.232Z,120.60
2023-04-06T21:58:51.673Z,35.30
2023-04-06T22:01:19.342Z,51.80
2023-04-06T22:03:46.818Z,44.00
2023-04-06T22:06:13.923Z,39.78
2023-04-06T22:08:40.484Z,10.93
2023-04-06T22:11:09.014Z,15.93
2023-04-06T22:13:38.615Z,22.98
2023-04-06T22:16:11.526Z,12.07
2023-04-06T22:18:39.247Z,20.48
2023-04-06T22:21:06.939Z,14.05
2023-04-06T22:23:33.555Z,17.95
2023-04-06T22:26:04.950Z,13.18
2023-04-06T22:28:31.302Z,17.80
2023-04-06T22:30:57.717Z,13.60
2023-04-06T22:33:26.566Z,15.63
2023-04-06T22:35:53.045Z,21.42
2023-04-06T22:38:19.447Z,13.02
2023-04-06T22:40:45.894Z,16.00
2023-04-06T22:43:12.258Z,15.38
2023-04-06T22:45:41.669Z,16.27
2023-04-06T22:48:08.136Z,14.15
2023-04-06T22:50:35.357Z,17.05
2023-04-06T22:53:02.297Z,16.63
2023-04-06T22:55:28.919Z,14.02
2023-04-06T22:57:55.447Z,9.80
2023-04-06T23:00:28.282Z,14.75
2023-04-06T23:02:55.011Z,10.73
2023-04-06T23:05:21.582Z,10.07
2023-04-06T23:07:51.341Z,12.57
2023-04-06T23:10:21.071Z,9.68
2023-04-06T23:12:48.313Z,15.50
2023-04-06T23:15:14.908Z,15.98
2023-04-06T23:17:41.549Z,13.20
2023-04-06T23:20:08.237Z,13.18
2023-04-06T23:22:37.239Z,12.68
2023-04-06T23:25:03.966Z,11.45
2023-04-06T23:27:33.014Z,16.05
2023-04-06T23:29:59.737Z,18.23
2023-04-06T23:32:28.564Z,15.50
2023-04-06T23:34:54.994Z,12.90
2023-04-06T23:37:21.423Z,13.50
2023-04-06T23:39:48.446Z,17.25
2023-04-06T23:42:14.904Z,10.68
2023-04-06T23:44:41.343Z,12.40
2023-04-06T23:47:07.908Z,10.93
2023-04-06T23:49:36.648Z,12.45
2023-04-06T23:52:03.552Z,13.20
2023-04-06T23:54:32.254Z,22.10
2023-04-06T23:57:01.300Z,12.80
2023-04-06T23:59:29.965Z,18.23
